sensor_id;sensor_type;location;lat;lon;timestamp;P1;durP1;ratioP1;P2;durP2;ratioP2
3379;SDS011;1703;51.964;7.642;2023-11-19T00:01:26;13.80;;;11.37;;
3379;SDS011;1703;51.964;7.642;2023-11-19T00:03:53;16.17;;;12.30;;
3379;SDS011;1703;51.964;7.642;2023-11-19T00:06:19;16.10;;;14.37;;
3379;SDS011;1703;51.964;7.642;2023-11-19T00:08:46;18.40;;;13.33;;
3379;SDS011;1703;51.964;7.642;2023-11-19T00:11:13;12.77;;;10.63;;
3379;SDS011;1703;51.964;7.642;2023-11-19T00:13:40;12.57;;;11.27;;
3379;SDS011;1703;51.964;7.642;2023-11-19T00:16:09;11.13;;;10.00;;
3379;SDS011;1703;51.964;7.642;2023-11-19T00:18:37;13.77;;;12.37;;
3379;SDS011;1703;51.964;7.642;2023-11-19T00:21:04;12.27;;;11.00;;
3379;SDS011;1703;51.964;7.642;2023-11-19T00:23:33;16.70;;;11.50;;
3379;SDS011;1703;51.964;7.642;2023-11-19T00:25:59;14.07;;;11.83;;
3379;SDS011;1703;51.964;7.642;2023-11-19T00:28:27;14.47;;;12.17;;
3379;SDS011;1703;51.964;7.642;2023-11-19T00:30:54;15.77;;;13.70;;
3379;SDS011;1703;51.964;7.642;2023-11-19T00:33:22;16.23;;;11.87;;
3379;SDS011;1703;51.964;7.642;2023-11-19T00:35:49;14.47;;;12.83;;
3379;SDS011;1703;51.964;7.642;2023-11-19T00:38:16;13.83;;;11.80;;
3379;SDS011;1703;51.964;7.642;2023-11-19T00:40:43;14.53;;;11.03;;
3379;SDS011;1703;51.964;7.642;2023-11-19T00:43:10;14.80;;;11.97;;
3379;SDS011;1703;51.964;7.642;2023-11-19T00:45:37;16.20;;;12.93;;
3379;SDS011;1703;51.964;7.642;2023-11-19T00:48:04;17.00;;;14.17;;
3379;SDS011;1703;51.964;7.642;2023-11-19T00:50:34;18.30;;;14.67;;
3379;SDS011;1703;51.964;7.642;2023-11-19T00:53:00;17.30;;;13.43;;
3379;SDS011;1703;51.964;7.642;2023-11-19T00:55:28;18.97;;;14.03;;
3379;SDS011;1703;51.964;7.642;2023-11-19T00:57:55;19.30;;;15.70;;
3379;SDS011;1703;51.964;7.642;2023-11-19T01:00:22;18.30;;;14.37;;
3379;SDS011;1703;51.964;7.642;2023-11-19T01:02:52;18.30;;;13.53;;
3379;SDS011;1703;51.964;7.642;2023-11-19T01:05:19;24.97;;;17.30;;
3379;SDS011;1703;51.964;7.642;2023-11-19T01:07:49;26.40;;;18.40;;
3379;SDS011;1703;51.964;7.642;2023-11-19T01:10:18;21.73;;;16.93;;
3379;SDS011;1703;51.964;7.642;2023-11-19T01:12:45;22.90;;;17.33;;
3379;SDS011;1703;51.964;7.642;2023-11-19T01:15:12;23.60;;;18.87;;
3379;SDS011;1703;51.964;7.642;2023-11-19T01:17:39;25.37;;;19.23;;
3379;SDS011;1703;51.964;7.642;2023-11-19T01:20:06;26.80;;;18.00;;
3379;SDS011;1703;51.964;7.642;2023-11-19T01:22:37;36.30;;;17.87;;
3379;SDS011;1703;51.964;7.642;2023-11-19T01:25:06;23.80;;;17.60;;
3379;SDS011;1703;51.964;7.642;2023-11-19T01:27:33;22.13;;;16.10;;
3379;SDS011;1703;51.964;7.642;2023-11-19T01:30:03;29.30;;;19.50;;
3379;SDS011;1703;51.964;7.642;2023-11-19T01:32:34;27.30;;;20.67;;
3379;SDS011;1703;51.964;7.642;2023-11-19T01:35:04;22.37;;;17.30;;
3379;SDS011;1703;51.964;7.642;2023-11-19T01:37:42;27.70;;;20.07;;
3379;SDS011;1703;51.964;7.642;2023-11-19T01:40:22;27.30;;;19.17;;
3379;SDS011;1703;51.964;7.642;2023-11-19T01:42:50;32.80;;;19.73;;
3379;SDS011;1703;51.964;7.642;2023-11-19T01:45:21;31.63;;;20.50;;
3379;SDS011;1703;51.964;7.642;2023-11-19T01:48:00;30.43;;;20.60;;
3379;SDS011;1703;51.964;7.642;2023-11-19T01:50:38;29.37;;;19.57;;
3379;SDS011;1703;51.964;7.642;2023-11-19T01:53:29;36.17;;;21.33;;
3379;SDS011;1703;51.964;7.642;2023-11-19T01:56:13;30.73;;;20.10;;
3379;SDS011;1703;51.964;7.642;2023-11-19T01:58:41;27.90;;;20.37;;
3379;SDS011;1703;51.964;7.642;2023-11-19T02:01:09;34.13;;;21.13;;
3379;SDS011;1703;51.964;7.642;2023-11-19T02:03:37;32.27;;;21.20;;
3379;SDS011;1703;51.964;7.642;2023-11-19T02:06:05;31.60;;;20.80;;
3379;SDS011;1703;51.964;7.642;2023-11-19T02:08:35;38.70;;;23.37;;
3379;SDS011;1703;51.964;7.642;2023-11-19T02:11:02;34.87;;;23.63;;
3379;SDS011;1703;51.964;7.642;2023-11-19T02:13:36;37.90;;;23.43;;
3379;SDS011;1703;51.964;7.642;2023-11-19T02:16:05;42.27;;;24.43;;
3379;SDS011;1703;51.964;7.642;2023-11-19T02:18:34;43.50;;;25.70;;
3379;SDS011;1703;51.964;7.642;2023-11-19T02:21:01;36.37;;;24.73;;
3379;SDS011;1703;51.964;7.642;2023-11-19T02:23:31;38.97;;;25.00;;
3379;SDS011;1703;51.964;7.642;2023-11-19T02:26:02;39.20;;;24.97;;
3379;SDS011;1703;51.964;7.642;2023-11-19T02:28:36;44.00;;;25.70;;
3379;SDS011;1703;51.964;7.642;2023-11-19T02:31:03;42.57;;;27.67;;
3379;SDS011;1703;51.964;7.642;2023-11-19T02:33:34;37.30;;;24.97;;
3379;SDS011;1703;51.964;7.642;2023-11-19T02:36:02;39.80;;;26.33;;
3379;SDS011;1703;51.964;7.642;2023-11-19T02:38:31;49.97;;;26.07;;
3379;SDS011;1703;51.964;7.642;2023-11-19T02:41:02;44.67;;;27.43;;
3379;SDS011;1703;51.964;7.642;2023-11-19T02:43:40;46.67;;;26.60;;
3379;SDS011;1703;51.964;7.642;2023-11-19T02:46:13;54.00;;;25.00;;
3379;SDS011;1703;51.964;7.642;2023-11-19T02:48:43;42.37;;;23.73;;
3379;SDS011;1703;51.964;7.642;2023-11-19T02:51:15;35.30;;;23.47;;
3379;SDS011;1703;51.964;7.642;2023-11-19T02:53:43;48.87;;;24.23;;
3379;SDS011;1703;51.964;7.642;2023-11-19T02:56:15;44.43;;;23.70;;
3379;SDS011;1703;51.964;7.642;2023-11-19T02:58:51;42.50;;;21.97;;
3379;SDS011;1703;51.964;7.642;2023-11-19T03:01:22;38.70;;;21.80;;
3379;SDS011;1703;51.964;7.642;2023-11-19T03:03:54;36.73;;;21.37;;
3379;SDS011;1703;51.964;7.642;2023-11-19T03:06:23;38.17;;;22.40;;
3379;SDS011;1703;51.964;7.642;2023-11-19T03:08:52;35.20;;;21.93;;
3379;SDS011;1703;51.964;7.642;2023-11-19T03:11:22;33.30;;;19.97;;
3379;SDS011;1703;51.964;7.642;2023-11-19T03:13:51;38.87;;;20.17;;
3379;SDS011;1703;51.964;7.642;2023-11-19T03:16:20;33.57;;;18.57;;
3379;SDS011;1703;51.964;7.642;2023-11-19T03:18:49;33.33;;;19.00;;
3379;SDS011;1703;51.964;7.642;2023-11-19T03:21:19;35.93;;;18.03;;
3379;SDS011;1703;51.964;7.642;2023-11-19T03:23:59;41.17;;;16.20;;
3379;SDS011;1703;51.964;7.642;2023-11-19T03:26:26;26.60;;;16.57;;
3379;SDS011;1703;51.964;7.642;2023-11-19T03:28:57;34.03;;;15.50;;
3379;SDS011;1703;51.964;7.642;2023-11-19T03:31:24;22.43;;;12.53;;
3379;SDS011;1703;51.964;7.642;2023-11-19T03:33:51;27.23;;;13.40;;
3379;SDS011;1703;51.964;7.642;2023-11-19T03:36:18;21.03;;;12.30;;
3379;SDS011;1703;51.964;7.642;2023-11-19T03:38:45;35.03;;;14.03;;
3379;SDS011;1703;51.964;7.642;2023-11-19T03:41:12;23.70;;;12.60;;
3379;SDS011;1703;51.964;7.642;2023-11-19T03:43:39;32.93;;;12.13;;
3379;SDS011;1703;51.964;7.642;2023-11-19T03:46:19;31.60;;;11.27;;
3379;SDS011;1703;51.964;7.642;2023-11-19T03:48:46;28.90;;;11.77;;
3379;SDS011;1703;51.964;7.642;2023-11-19T03:51:13;22.67;;;11.37;;
3379;SDS011;1703;51.964;7.642;2023-11-19T03:53:41;32.43;;;11.23;;
3379;SDS011;1703;51.964;7.642;2023-11-19T03:56:08;24.03;;;11.20;;
3379;SDS011;1703;51.964;7.642;2023-11-19T03:58:36;27.70;;;11.50;;
3379;SDS011;1703;51.964;7.642;2023-11-19T04:01:04;31.93;;;11.97;;
3379;SDS011;1703;51.964;7.642;2023-11-19T04:03:32;32.83;;;10.53;;
3379;SDS011;1703;51.964;7.642;2023-11-19T04:05:59;34.80;;;12.00;;
3379;SDS011;1703;51.964;7.642;2023-11-19T04:08:26;15.90;;;9.17;;
3379;SDS011;1703;51.964;7.642;2023-11-19T04:10:56;30.07;;;9.43;;
3379;SDS011;1703;51.964;7.642;2023-11-19T04:13:26;30.63;;;10.23;;
3379;SDS011;1703;51.964;7.642;2023-11-19T04:15:56;28.80;;;8.67;;
3379;SDS011;1703;51.964;7.642;2023-11-19T04:18:23;31.63;;;9.93;;
3379;SDS011;1703;51.964;7.642;2023-11-19T04:20:53;31.63;;;10.20;;
3379;SDS011;1703;51.964;7.642;2023-11-19T04:23:20;17.00;;;7.97;;
3379;SDS011;1703;51.964;7.642;2023-11-19T04:25:47;24.50;;;6.93;;
3379;SDS011;1703;51.964;7.642;2023-11-19T04:28:14;40.40;;;6.40;;
3379;SDS011;1703;51.964;7.642;2023-11-19T04:30:43;27.73;;;7.30;;
3379;SDS011;1703;51.964;7.642;2023-11-19T04:33:10;33.10;;;7.17;;
3379;SDS011;1703;51.964;7.642;2023-11-19T04:35:37;21.27;;;6.07;;
3379;SDS011;1703;51.964;7.642;2023-11-19T04:38:11;13.40;;;5.37;;
3379;SDS011;1703;51.964;7.642;2023-11-19T04:40:38;22.93;;;6.37;;
3379;SDS011;1703;51.964;7.642;2023-11-19T04:43:05;16.23;;;5.10;;
3379;SDS011;1703;51.964;7.642;2023-11-19T04:45:32;24.60;;;7.00;;
3379;SDS011;1703;51.964;7.642;2023-11-19T04:48:05;21.20;;;6.87;;
3379;SDS011;1703;51.964;7.642;2023-11-19T04:50:32;17.10;;;4.47;;
3379;SDS011;1703;51.964;7.642;2023-11-19T04:52:59;16.27;;;4.50;;
3379;SDS011;1703;51.964;7.642;2023-11-19T04:55:27;13.40;;;5.10;;
3379;SDS011;1703;51.964;7.642;2023-11-19T04:57:54;18.43;;;5.00;;
3379;SDS011;1703;51.964;7.642;2023-11-19T05:00:21;21.93;;;5.30;;
3379;SDS011;1703;51.964;7.642;2023-11-19T05:02:49;19.30;;;5.37;;
3379;SDS011;1703;51.964;7.642;2023-11-19T05:05:16;17.93;;;4.37;;
3379;SDS011;1703;51.964;7.642;2023-11-19T05:07:43;32.23;;;6.03;;
3379;SDS011;1703;51.964;7.642;2023-11-19T05:10:10;23.40;;;4.77;;
3379;SDS011;1703;51.964;7.642;2023-11-19T05:12:41;11.33;;;5.37;;
3379;SDS011;1703;51.964;7.642;2023-11-19T05:15:08;18.23;;;4.87;;
3379;SDS011;1703;51.964;7.642;2023-11-19T05:17:37;20.80;;;4.97;;
3379;SDS011;1703;51.964;7.642;2023-11-19T05:20:04;18.33;;;6.00;;
3379;SDS011;1703;51.964;7.642;2023-11-19T05:22:38;26.30;;;5.43;;
3379;SDS011;1703;51.964;7.642;2023-11-19T05:25:07;21.80;;;5.10;;
3379;SDS011;1703;51.964;7.642;2023-11-19T05:27:35;14.10;;;5.73;;
3379;SDS011;1703;51.964;7.642;2023-11-19T05:30:08;21.03;;;5.33;;
3379;SDS011;1703;51.964;7.642;2023-11-19T05:32:35;19.73;;;5.43;;
3379;SDS011;1703;51.964;7.642;2023-11-19T05:35:01;23.50;;;6.93;;
3379;SDS011;1703;51.964;7.642;2023-11-19T05:37:28;19.50;;;5.90;;
3379;SDS011;1703;51.964;7.642;2023-11-19T05:39:56;34.33;;;5.57;;
3379;SDS011;1703;51.964;7.642;2023-11-19T05:42:28;22.63;;;5.53;;
3379;SDS011;1703;51.964;7.642;2023-11-19T05:44:55;22.53;;;6.83;;
3379;SDS011;1703;51.964;7.642;2023-11-19T05:47:24;31.87;;;6.40;;
3379;SDS011;1703;51.964;7.642;2023-11-19T05:49:52;25.33;;;5.53;;
3379;SDS011;1703;51.964;7.642;2023-11-19T05:52:27;27.47;;;5.90;;
3379;SDS011;1703;51.964;7.642;2023-11-19T05:55:14;18.77;;;5.33;;
3379;SDS011;1703;51.964;7.642;2023-11-19T05:57:59;17.40;;;5.63;;
3379;SDS011;1703;51.964;7.642;2023-11-19T06:00:38;18.77;;;5.63;;
3379;SDS011;1703;51.964;7.642;2023-11-19T06:03:17;23.93;;;5.17;;
3379;SDS011;1703;51.964;7.642;2023-11-19T06:05:59;21.27;;;5.67;;
3379;SDS011;1703;51.964;7.642;2023-11-19T06:08:38;21.30;;;6.53;;
3379;SDS011;1703;51.964;7.642;2023-11-19T06:11:20;29.30;;;5.07;;
3379;SDS011;1703;51.964;7.642;2023-11-19T06:14:02;35.17;;;5.97;;
3379;SDS011;1703;51.964;7.642;2023-11-19T06:16:33;16.60;;;4.50;;
3379;SDS011;1703;51.964;7.642;2023-11-19T06:19:27;22.70;;;6.70;;
3379;SDS011;1703;51.964;7.642;2023-11-19T06:21:59;26.83;;;6.43;;
3379;SDS011;1703;51.964;7.642;2023-11-19T06:24:29;25.37;;;5.80;;
3379;SDS011;1703;51.964;7.642;2023-11-19T06:27:06;22.33;;;5.67;;
3379;SDS011;1703;51.964;7.642;2023-11-19T06:29:48;25.23;;;5.23;;
3379;SDS011;1703;51.964;7.642;2023-11-19T06:32:26;22.57;;;5.00;;
3379;SDS011;1703;51.964;7.642;2023-11-19T06:35:04;24.77;;;5.00;;
3379;SDS011;1703;51.964;7.642;2023-11-19T06:37:50;26.60;;;6.87;;
3379;SDS011;1703;51.964;7.642;2023-11-19T06:40:17;23.07;;;5.50;;
3379;SDS011;1703;51.964;7.642;2023-11-19T06:42:44;29.53;;;4.57;;
3379;SDS011;1703;51.964;7.642;2023-11-19T06:45:23;27.23;;;5.40;;
3379;SDS011;1703;51.964;7.642;2023-11-19T06:48:00;20.93;;;4.80;;
3379;SDS011;1703;51.964;7.642;2023-11-19T06:50:29;22.83;;;5.43;;
3379;SDS011;1703;51.964;7.642;2023-11-19T06:52:56;35.33;;;5.40;;
3379;SDS011;1703;51.964;7.642;2023-11-19T06:55:26;23.83;;;6.20;;
3379;SDS011;1703;51.964;7.642;2023-11-19T06:57:55;21.67;;;5.00;;
3379;SDS011;1703;51.964;7.642;2023-11-19T07:00:22;28.30;;;5.60;;
3379;SDS011;1703;51.964;7.642;2023-11-19T07:02:49;33.97;;;5.33;;
3379;SDS011;1703;51.964;7.642;2023-11-19T07:05:16;16.90;;;3.77;;
3379;SDS011;1703;51.964;7.642;2023-11-19T07:07:48;28.67;;;5.57;;
3379;SDS011;1703;51.964;7.642;2023-11-19T07:10:31;27.70;;;6.00;;
3379;SDS011;1703;51.964;7.642;2023-11-19T07:13:04;25.47;;;5.53;;
3379;SDS011;1703;51.964;7.642;2023-11-19T07:15:42;37.73;;;6.20;;
3379;SDS011;1703;51.964;7.642;2023-11-19T07:18:10;31.87;;;5.17;;
3379;SDS011;1703;51.964;7.642;2023-11-19T07:20:41;25.00;;;5.47;;
3379;SDS011;1703;51.964;7.642;2023-11-19T07:23:17;31.13;;;5.50;;
3379;SDS011;1703;51.964;7.642;2023-11-19T07:25:58;30.60;;;6.00;;
3379;SDS011;1703;51.964;7.642;2023-11-19T07:28:27;39.00;;;5.83;;
3379;SDS011;1703;51.964;7.642;2023-11-19T07:31:07;31.33;;;7.37;;
3379;SDS011;1703;51.964;7.642;2023-11-19T07:33:39;29.60;;;6.23;;
3379;SDS011;1703;51.964;7.642;2023-11-19T07:36:16;30.10;;;5.87;;
3379;SDS011;1703;51.964;7.642;2023-11-19T07:38:59;24.20;;;5.60;;
3379;SDS011;1703;51.964;7.642;2023-11-19T07:41:29;26.37;;;5.23;;
3379;SDS011;1703;51.964;7.642;2023-11-19T07:44:02;15.13;;;4.47;;
3379;SDS011;1703;51.964;7.642;2023-11-19T07:46:36;31.47;;;6.13;;
3379;SDS011;1703;51.964;7.642;2023-11-19T07:50:02;23.70;;;6.07;;
3379;SDS011;1703;51.964;7.642;2023-11-19T07:52:24;20.63;;;4.90;;
3379;SDS011;1703;51.964;7.642;2023-11-19T07:55:12;17.27;;;5.70;;
3379;SDS011;1703;51.964;7.642;2023-11-19T07:57:42;31.97;;;6.07;;
3379;SDS011;1703;51.964;7.642;2023-11-19T08:00:19;29.73;;;6.30;;
3379;SDS011;1703;51.964;7.642;2023-11-19T08:03:04;28.97;;;5.47;;
3379;SDS011;1703;51.964;7.642;2023-11-19T08:05:35;41.53;;;7.20;;
3379;SDS011;1703;51.964;7.642;2023-11-19T08:08:05;19.03;;;5.20;;
3379;SDS011;1703;51.964;7.642;2023-11-19T08:10:39;21.43;;;4.87;;
3379;SDS011;1703;51.964;7.642;2023-11-19T08:13:13;29.30;;;6.07;;
3379;SDS011;1703;51.964;7.642;2023-11-19T08:15:58;17.67;;;5.33;;
3379;SDS011;1703;51.964;7.642;2023-11-19T08:18:26;20.30;;;5.40;;
3379;SDS011;1703;51.964;7.642;2023-11-19T08:21:06;27.87;;;6.40;;
3379;SDS011;1703;51.964;7.642;2023-11-19T08:23:38;22.73;;;5.47;;
3379;SDS011;1703;51.964;7.642;2023-11-19T08:26:09;23.93;;;5.17;;
3379;SDS011;1703;51.964;7.642;2023-11-19T08:28:37;27.97;;;5.80;;
3379;SDS011;1703;51.964;7.642;2023-11-19T08:31:19;30.37;;;5.97;;
3379;SDS011;1703;51.964;7.642;2023-11-19T08:33:52;23.27;;;5.57;;
3379;SDS011;1703;51.964;7.642;2023-11-19T08:36:21;19.70;;;5.50;;
3379;SDS011;1703;51.964;7.642;2023-11-19T08:38:51;31.87;;;6.40;;
3379;SDS011;1703;51.964;7.642;2023-11-19T08:41:26;22.67;;;6.10;;
3379;SDS011;1703;51.964;7.642;2023-11-19T08:44:00;31.00;;;6.00;;
3379;SDS011;1703;51.964;7.642;2023-11-19T08:46:30;35.87;;;6.50;;
3379;SDS011;1703;51.964;7.642;2023-11-19T08:48:57;24.37;;;6.53;;
3379;SDS011;1703;51.964;7.642;2023-11-19T08:51:29;21.17;;;6.57;;
3379;SDS011;1703;51.964;7.642;2023-11-19T08:54:00;28.97;;;5.83;;
3379;SDS011;1703;51.964;7.642;2023-11-19T08:56:33;23.57;;;6.00;;
3379;SDS011;1703;51.964;7.642;2023-11-19T08:59:06;16.13;;;4.63;;
3379;SDS011;1703;51.964;7.642;2023-11-19T09:01:38;20.47;;;5.23;;
3379;SDS011;1703;51.964;7.642;2023-11-19T09:04:06;37.60;;;6.77;;
3379;SDS011;1703;51.964;7.642;2023-11-19T09:06:33;28.77;;;7.23;;
3379;SDS011;1703;51.964;7.642;2023-11-19T09:09:01;28.13;;;5.37;;
3379;SDS011;1703;51.964;7.642;2023-11-19T09:11:30;32.50;;;6.10;;
3379;SDS011;1703;51.964;7.642;2023-11-19T09:13:58;30.70;;;6.80;;
3379;SDS011;1703;51.964;7.642;2023-11-19T09:16:25;19.27;;;5.90;;
3379;SDS011;1703;51.964;7.642;2023-11-19T09:18:52;23.40;;;5.40;;
3379;SDS011;1703;51.964;7.642;2023-11-19T09:21:19;26.27;;;5.33;;
3379;SDS011;1703;51.964;7.642;2023-11-19T09:23:46;28.63;;;6.47;;
3379;SDS011;1703;51.964;7.642;2023-11-19T09:26:14;34.33;;;5.87;;
3379;SDS011;1703;51.964;7.642;2023-11-19T09:28:42;30.80;;;5.80;;
3379;SDS011;1703;51.964;7.642;2023-11-19T09:31:12;17.70;;;4.70;;
3379;SDS011;1703;51.964;7.642;2023-11-19T09:33:39;29.73;;;5.90;;
3379;SDS011;1703;51.964;7.642;2023-11-19T09:36:07;22.10;;;5.67;;
3379;SDS011;1703;51.964;7.642;2023-11-19T09:38:35;26.63;;;6.30;;
3379;SDS011;1703;51.964;7.642;2023-11-19T09:41:03;38.13;;;7.50;;
3379;SDS011;1703;51.964;7.642;2023-11-19T09:43:33;32.93;;;5.30;;
3379;SDS011;1703;51.964;7.642;2023-11-19T09:46:03;26.50;;;6.67;;
3379;SDS011;1703;51.964;7.642;2023-11-19T09:48:32;43.93;;;5.87;;
3379;SDS011;1703;51.964;7.642;2023-11-19T09:51:03;34.37;;;5.90;;
3379;SDS011;1703;51.964;7.642;2023-11-19T09:53:34;28.47;;;5.67;;
3379;SDS011;1703;51.964;7.642;2023-11-19T09:56:01;24.50;;;5.80;;
3379;SDS011;1703;51.964;7.642;2023-11-19T09:58:29;31.70;;;5.77;;
3379;SDS011;1703;51.964;7.642;2023-11-19T10:00:56;26.63;;;6.43;;
3379;SDS011;1703;51.964;7.642;2023-11-19T10:03:26;39.60;;;6.60;;
3379;SDS011;1703;51.964;7.642;2023-11-19T10:05:56;35.70;;;6.23;;
3379;SDS011;1703;51.964;7.642;2023-11-19T10:08:24;41.70;;;7.57;;
3379;SDS011;1703;51.964;7.642;2023-11-19T10:10:55;39.77;;;6.80;;
3379;SDS011;1703;51.964;7.642;2023-11-19T10:13:25;23.47;;;7.70;;
3379;SDS011;1703;51.964;7.642;2023-11-19T10:16:28;22.03;;;5.43;;
3379;SDS011;1703;51.964;7.642;2023-11-19T10:19:19;21.07;;;5.57;;
3379;SDS011;1703;51.964;7.642;2023-11-19T10:22:01;34.10;;;6.83;;
3379;SDS011;1703;51.964;7.642;2023-11-19T10:24:53;38.03;;;6.63;;
3379;SDS011;1703;51.964;7.642;2023-11-19T10:27:35;25.93;;;6.30;;
3379;SDS011;1703;51.964;7.642;2023-11-19T10:30:34;34.30;;;6.40;;
3379;SDS011;1703;51.964;7.642;2023-11-19T10:33:22;29.03;;;6.53;;
3379;SDS011;1703;51.964;7.642;2023-11-19T10:36:07;32.20;;;6.27;;
3379;SDS011;1703;51.964;7.642;2023-11-19T10:38:57;29.13;;;6.90;;
3379;SDS011;1703;51.964;7.642;2023-11-19T10:41:37;31.83;;;5.93;;
3379;SDS011;1703;51.964;7.642;2023-11-19T10:44:17;24.80;;;5.23;;
3379;SDS011;1703;51.964;7.642;2023-11-19T10:47:22;21.13;;;5.03;;
3379;SDS011;1703;51.964;7.642;2023-11-19T10:50:53;32.03;;;7.97;;
3379;SDS011;1703;51.964;7.642;2023-11-19T10:53:32;24.23;;;5.80;;
3379;SDS011;1703;51.964;7.642;2023-11-19T10:56:44;25.80;;;5.30;;
3379;SDS011;1703;51.964;7.642;2023-11-19T10:59:43;30.73;;;4.97;;
3379;SDS011;1703;51.964;7.642;2023-11-19T11:02:24;23.37;;;4.30;;
3379;SDS011;1703;51.964;7.642;2023-11-19T11:05:08;28.13;;;8.20;;
3379;SDS011;1703;51.964;7.642;2023-11-19T11:07:51;23.43;;;6.83;;
3379;SDS011;1703;51.964;7.642;2023-11-19T11:10:48;20.30;;;5.07;;
3379;SDS011;1703;51.964;7.642;2023-11-19T11:13:26;23.97;;;5.07;;
3379;SDS011;1703;51.964;7.642;2023-11-19T11:16:09;23.43;;;5.90;;
3379;SDS011;1703;51.964;7.642;2023-11-19T11:18:59;32.73;;;6.50;;
3379;SDS011;1703;51.964;7.642;2023-11-19T11:21:55;34.37;;;5.30;;
3379;SDS011;1703;51.964;7.642;2023-11-19T11:24:50;25.07;;;7.10;;
3379;SDS011;1703;51.964;7.642;2023-11-19T11:31:37;27.03;;;5.10;;
3379;SDS011;1703;51.964;7.642;2023-11-19T11:34:46;37.73;;;6.37;;
3379;SDS011;1703;51.964;7.642;2023-11-19T11:37:43;20.97;;;5.30;;
3379;SDS011;1703;51.964;7.642;2023-11-19T11:40:34;36.50;;;6.47;;
3379;SDS011;1703;51.964;7.642;2023-11-19T11:43:49;18.47;;;4.20;;
3379;SDS011;1703;51.964;7.642;2023-11-19T11:47:00;25.27;;;4.43;;
3379;SDS011;1703;51.964;7.642;2023-11-19T11:49:51;29.63;;;5.07;;
3379;SDS011;1703;51.964;7.642;2023-11-19T11:56:10;22.03;;;4.93;;
3379;SDS011;1703;51.964;7.642;2023-11-19T12:02:40;24.53;;;4.87;;
3379;SDS011;1703;51.964;7.642;2023-11-19T12:05:17;31.53;;;4.73;;
3379;SDS011;1703;51.964;7.642;2023-11-19T12:08:27;19.73;;;4.23;;
3379;SDS011;1703;51.964;7.642;2023-11-19T12:11:05;37.50;;;6.63;;
3379;SDS011;1703;51.964;7.642;2023-11-19T12:13:57;22.30;;;7.00;;
3379;SDS011;1703;51.964;7.642;2023-11-19T12:23:33;23.77;;;5.80;;
3379;SDS011;1703;51.964;7.642;2023-11-19T12:26:54;13.93;;;3.70;;
3379;SDS011;1703;51.964;7.642;2023-11-19T12:29:41;24.50;;;4.63;;
3379;SDS011;1703;51.964;7.642;2023-11-19T12:32:29;31.10;;;5.23;;
3379;SDS011;1703;51.964;7.642;2023-11-19T12:35:33;34.63;;;6.47;;
3379;SDS011;1703;51.964;7.642;2023-11-19T12:38:18;27.33;;;6.57;;
3379;SDS011;1703;51.964;7.642;2023-11-19T12:41:27;19.47;;;4.50;;
3379;SDS011;1703;51.964;7.642;2023-11-19T12:44:35;20.30;;;4.33;;
3379;SDS011;1703;51.964;7.642;2023-11-19T12:47:52;34.13;;;6.33;;
3379;SDS011;1703;51.964;7.642;2023-11-19T12:54:30;16.10;;;3.83;;
3379;SDS011;1703;51.964;7.642;2023-11-19T13:04:38;21.90;;;5.10;;
3379;SDS011;1703;51.964;7.642;2023-11-19T13:11:33;27.10;;;6.80;;
3379;SDS011;1703;51.964;7.642;2023-11-19T13:14:41;15.70;;;4.20;;
3379;SDS011;1703;51.964;7.642;2023-11-19T13:18:04;14.33;;;3.97;;
3379;SDS011;1703;51.964;7.642;2023-11-19T13:21:06;28.73;;;4.33;;
3379;SDS011;1703;51.964;7.642;2023-11-19T13:24:04;20.90;;;4.03;;
3379;SDS011;1703;51.964;7.642;2023-11-19T13:26:46;22.33;;;4.80;;
3379;SDS011;1703;51.964;7.642;2023-11-19T13:29:14;27.83;;;4.90;;
3379;SDS011;1703;51.964;7.642;2023-11-19T13:31:41;15.77;;;4.23;;
3379;SDS011;1703;51.964;7.642;2023-11-19T13:34:07;15.17;;;3.90;;
3379;SDS011;1703;51.964;7.642;2023-11-19T13:36:35;25.83;;;4.37;;
3379;SDS011;1703;51.964;7.642;2023-11-19T13:39:02;21.83;;;4.30;;
3379;SDS011;1703;51.964;7.642;2023-11-19T13:41:30;34.47;;;5.20;;
3379;SDS011;1703;51.964;7.642;2023-11-19T13:43:57;24.13;;;4.47;;
3379;SDS011;1703;51.964;7.642;2023-11-19T13:46:24;15.00;;;3.77;;
3379;SDS011;1703;51.964;7.642;2023-11-19T13:48:50;16.50;;;3.93;;
3379;SDS011;1703;51.964;7.642;2023-11-19T13:51:17;28.23;;;5.50;;
3379;SDS011;1703;51.964;7.642;2023-11-19T13:53:45;17.83;;;3.43;;
3379;SDS011;1703;51.964;7.642;2023-11-19T13:56:12;19.00;;;4.30;;
3379;SDS011;1703;51.964;7.642;2023-11-19T13:58:39;24.77;;;4.80;;
3379;SDS011;1703;51.964;7.642;2023-11-19T14:01:06;21.80;;;4.50;;
3379;SDS011;1703;51.964;7.642;2023-11-19T14:03:32;15.00;;;4.10;;
3379;SDS011;1703;51.964;7.642;2023-11-19T14:05:59;16.47;;;4.53;;
3379;SDS011;1703;51.964;7.642;2023-11-19T14:08:27;19.87;;;4.37;;
3379;SDS011;1703;51.964;7.642;2023-11-19T14:10:55;15.07;;;5.23;;
3379;SDS011;1703;51.964;7.642;2023-11-19T14:13:23;14.77;;;4.63;;
3379;SDS011;1703;51.964;7.642;2023-11-19T14:15:50;15.30;;;3.43;;
3379;SDS011;1703;51.964;7.642;2023-11-19T14:18:17;26.23;;;4.93;;
3379;SDS011;1703;51.964;7.642;2023-11-19T14:20:44;19.47;;;4.73;;
3379;SDS011;1703;51.964;7.642;2023-11-19T14:23:11;6.90;;;2.93;;
3379;SDS011;1703;51.964;7.642;2023-11-19T14:25:38;12.20;;;3.33;;
3379;SDS011;1703;51.964;7.642;2023-11-19T14:28:07;17.17;;;3.00;;
3379;SDS011;1703;51.964;7.642;2023-11-19T14:30:33;21.77;;;4.07;;
3379;SDS011;1703;51.964;7.642;2023-11-19T14:33:00;19.23;;;4.53;;
3379;SDS011;1703;51.964;7.642;2023-11-19T14:35:28;23.20;;;5.37;;
3379;SDS011;1703;51.964;7.642;2023-11-19T14:37:57;11.97;;;4.17;;
3379;SDS011;1703;51.964;7.642;2023-11-19T14:40:25;10.30;;;3.73;;
3379;SDS011;1703;51.964;7.642;2023-11-19T14:42:52;14.33;;;5.33;;
3379;SDS011;1703;51.964;7.642;2023-11-19T14:45:20;21.20;;;5.00;;
3379;SDS011;1703;51.964;7.642;2023-11-19T14:47:47;19.10;;;3.97;;
3379;SDS011;1703;51.964;7.642;2023-11-19T14:50:14;13.07;;;3.43;;
3379;SDS011;1703;51.964;7.642;2023-11-19T14:52:41;18.30;;;4.10;;
3379;SDS011;1703;51.964;7.642;2023-11-19T14:55:08;21.60;;;4.53;;
3379;SDS011;1703;51.964;7.642;2023-11-19T14:57:36;18.70;;;4.80;;
3379;SDS011;1703;51.964;7.642;2023-11-19T15:00:05;15.63;;;3.93;;
3379;SDS011;1703;51.964;7.642;2023-11-19T15:02:39;11.93;;;3.83;;
3379;SDS011;1703;51.964;7.642;2023-11-19T15:05:07;19.83;;;4.27;;
3379;SDS011;1703;51.964;7.642;2023-11-19T15:07:35;16.03;;;4.03;;
3379;SDS011;1703;51.964;7.642;2023-11-19T15:10:03;16.93;;;4.47;;
3379;SDS011;1703;51.964;7.642;2023-11-19T15:12:34;18.53;;;5.57;;
3379;SDS011;1703;51.964;7.642;2023-11-19T15:15:05;15.30;;;3.73;;
3379;SDS011;1703;51.964;7.642;2023-11-19T15:17:33;21.47;;;3.70;;
3379;SDS011;1703;51.964;7.642;2023-11-19T15:20:02;18.13;;;4.90;;
3379;SDS011;1703;51.964;7.642;2023-11-19T15:22:30;12.20;;;3.70;;
3379;SDS011;1703;51.964;7.642;2023-11-19T15:24:57;15.10;;;3.87;;
3379;SDS011;1703;51.964;7.642;2023-11-19T15:27:24;13.73;;;3.73;;
3379;SDS011;1703;51.964;7.642;2023-11-19T15:29:51;35.43;;;6.00;;
3379;SDS011;1703;51.964;7.642;2023-11-19T15:32:18;19.23;;;4.57;;
3379;SDS011;1703;51.964;7.642;2023-11-19T15:34:45;29.17;;;5.90;;
3379;SDS011;1703;51.964;7.642;2023-11-19T15:37:14;18.97;;;3.27;;
3379;SDS011;1703;51.964;7.642;2023-11-19T15:39:40;16.40;;;3.73;;
3379;SDS011;1703;51.964;7.642;2023-11-19T15:42:07;10.40;;;3.30;;
3379;SDS011;1703;51.964;7.642;2023-11-19T15:44:37;12.53;;;3.23;;
3379;SDS011;1703;51.964;7.642;2023-11-19T15:47:04;26.87;;;4.83;;
3379;SDS011;1703;51.964;7.642;2023-11-19T15:49:31;12.00;;;3.67;;
3379;SDS011;1703;51.964;7.642;2023-11-19T15:51:58;24.63;;;6.00;;
3379;SDS011;1703;51.964;7.642;2023-11-19T15:54:27;13.40;;;5.23;;
3379;SDS011;1703;51.964;7.642;2023-11-19T15:56:53;14.37;;;3.63;;
3379;SDS011;1703;51.964;7.642;2023-11-19T15:59:20;11.80;;;3.37;;
3379;SDS011;1703;51.964;7.642;2023-11-19T16:01:47;19.13;;;3.93;;
3379;SDS011;1703;51.964;7.642;2023-11-19T16:04:14;9.97;;;3.70;;
3379;SDS011;1703;51.964;7.642;2023-11-19T16:06:41;18.60;;;4.90;;
3379;SDS011;1703;51.964;7.642;2023-11-19T16:09:08;13.37;;;3.30;;
3379;SDS011;1703;51.964;7.642;2023-11-19T16:11:41;24.50;;;5.40;;